Grande Mariner — WCY6594 — position and weather

sailwx.info

Track history (hours):
 
Tides and Currents Weather Stations Pressure Air Temp Water Temp Dewpoint Dewpoint Depression Visibility Wind Speed Wind Dir Waves Ship Positions

Grande Mariner

Owner: AMERICAN CANADIAN CARIBBEAN LINE INC, WARREN, RI. More information available from US FCC via Universal Licensing System and Coast Guard Vessel Documentation Center.

Last reported at 2016-Dec-09 18:33 UTC. Time now 2016-Dec-10 03:10 UTC.
Position N 39°00' W 076°23'.

Length 56 m; draft 2 m.

Type: Passenger vessel. MMSI: 369024000.

Date/timePositionNaut miles runAvg speedWind from/ knotsBaromVisibWave heightAir tempDewpointWater temp
2016-Dec-09 18:33N 39°00' W 076°23'11 9.1
2016-Dec-09 17:23N 39°11' W 076°27'7 9.0
2016-Dec-09 16:33N 39°15' W 076°34'3 2.5
2016-Dec-09 15:33N 39°17' W 076°36'0 0.0
2016-Dec-09 14:33N 39°17' W 076°36'0 0.1
2016-Dec-09 13:33N 39°17' W 076°36'0 0.0
2016-Dec-09 12:33N 39°17' W 076°36'0 0.0
2016-Dec-09 11:33N 39°17' W 076°36'0 0.0
2016-Dec-09 10:33N 39°17' W 076°36'0 0.0
2016-Dec-09 09:33N 39°17' W 076°36'0 0.0
2016-Dec-09 08:33N 39°17' W 076°36'0 0.0
2016-Dec-09 07:33N 39°17' W 076°36'0 0.0
2016-Dec-09 06:33N 39°17' W 076°36'0 0.0
2016-Dec-09 05:33N 39°17' W 076°36'0 0.1
2016-Dec-09 04:33N 39°17' W 076°36'4 3.6
2016-Dec-09 03:34N 39°14' W 076°33'27 9.1
2016-Dec-09 00:33N 39°26' W 076°01'1010.4
2016-Dec-08 23:34N 39°32' W 075°50'10 9.8
2016-Dec-08 22:34N 39°33' W 075°38'8 7.7
2016-Dec-08 21:33N 39°27' W 075°33'1010.5
2016-Dec-08 20:34N 39°19' W 075°24'9 9.1
2016-Dec-08 19:34N 39°11' W 075°17'53 6.6
2016-Dec-08 11:31N 39°30' W 074°12'1010.4
2016-Dec-08 10:34N 39°39' W 074°06'1010.4
2016-Dec-08 09:34N 39°48' W 074°02'4210.4
2016-Dec-08 05:30N 40°30' W 073°58'8 8.9
2016-Dec-08 04:34N 40°38' W 074°03'9 8.7
2016-Dec-08 03:34N 40°45' W 073°58'133 9.8
2016-Dec-07 14:03N 41°42' W 071°18'  
Track history (hours):
 
Tides and Currents Weather Stations Pressure Air Temp Water Temp Dewpoint Dewpoint Depression Visibility Wind Speed Wind Dir Waves Ship Positions

Grande Mariner

Owner: AMERICAN CANADIAN CARIBBEAN LINE INC, WARREN, RI. More information available from US FCC via Universal Licensing System and Coast Guard Vessel Documentation Center.

Last reported at 2016-Dec-09 18:33 UTC. Time now 2016-Dec-10 03:10 UTC.
Position N 39°00' W 076°23'.

Length 56 m; draft 2 m.

Type: Passenger vessel. MMSI: 369024000.

Date/timePositionNaut miles runAvg speedWind from/ knotsBaromVisibWave heightAir tempDewpointWater temp
2016-Dec-09 18:33N 39°00' W 076°23'11 9.1
2016-Dec-09 17:23N 39°11' W 076°27'7 9.0
2016-Dec-09 16:33N 39°15' W 076°34'3 2.5
2016-Dec-09 15:33N 39°17' W 076°36'0 0.0
2016-Dec-09 14:33N 39°17' W 076°36'0 0.1
2016-Dec-09 13:33N 39°17' W 076°36'0 0.0
2016-Dec-09 12:33N 39°17' W 076°36'0 0.0
2016-Dec-09 11:33N 39°17' W 076°36'0 0.0
2016-Dec-09 10:33N 39°17' W 076°36'0 0.0
2016-Dec-09 09:33N 39°17' W 076°36'0 0.0
2016-Dec-09 08:33N 39°17' W 076°36'0 0.0
2016-Dec-09 07:33N 39°17' W 076°36'0 0.0
2016-Dec-09 06:33N 39°17' W 076°36'0 0.0
2016-Dec-09 05:33N 39°17' W 076°36'0 0.1
2016-Dec-09 04:33N 39°17' W 076°36'4 3.6
2016-Dec-09 03:34N 39°14' W 076°33'27 9.1
2016-Dec-09 00:33N 39°26' W 076°01'1010.4
2016-Dec-08 23:34N 39°32' W 075°50'10 9.8
2016-Dec-08 22:34N 39°33' W 075°38'8 7.7
2016-Dec-08 21:33N 39°27' W 075°33'1010.5
2016-Dec-08 20:34N 39°19' W 075°24'9 9.1
2016-Dec-08 19:34N 39°11' W 075°17'53 6.6
2016-Dec-08 11:31N 39°30' W 074°12'1010.4
2016-Dec-08 10:34N 39°39' W 074°06'1010.4
2016-Dec-08 09:34N 39°48' W 074°02'4210.4
2016-Dec-08 05:30N 40°30' W 073°58'8 8.9
2016-Dec-08 04:34N 40°38' W 074°03'9 8.7
2016-Dec-08 03:34N 40°45' W 073°58'133 9.8
2016-Dec-07 14:03N 41°42' W 071°18'  

Dump ship's entire track history